createdAt,value
2019-03-05T00:00:14.381Z,11.45
2019-03-05T00:02:41.725Z,9.00
2019-03-05T00:05:09.630Z,9.23
2019-03-05T00:07:36.991Z,10.85
2019-03-05T00:10:05.955Z,9.75
2019-03-05T00:12:33.513Z,10.50
2019-03-05T00:15:00.786Z,10.40
2019-03-05T00:17:28.071Z,7.92
2019-03-05T00:19:55.356Z,15.95
2019-03-05T00:22:22.647Z,9.83
2019-03-05T00:25:00.377Z,11.53
2019-03-05T00:27:30.640Z,11.75
2019-03-05T00:30:15.689Z,10.78
2019-03-05T00:32:44.030Z,10.68
2019-03-05T00:35:29.046Z,7.45
2019-03-05T00:38:00.813Z,10.20
2019-03-05T00:40:32.708Z,8.50
2019-03-05T00:43:01.071Z,10.70
2019-03-05T00:45:45.037Z,8.80
2019-03-05T00:48:30.171Z,10.35
2019-03-05T00:51:02.708Z,10.15
2019-03-05T00:53:37.599Z,8.50
2019-03-05T00:56:09.275Z,10.50
2019-03-05T00:58:38.088Z,14.58
2019-03-05T01:01:18.875Z,8.80
2019-03-05T01:03:50.358Z,8.15
2019-03-05T01:06:19.168Z,10.98
2019-03-05T01:08:46.460Z,8.58
2019-03-05T01:11:14.369Z,9.90
2019-03-05T01:13:41.736Z,7.83
2019-03-05T01:16:10.443Z,7.85
2019-03-05T01:18:37.738Z,7.70
2019-03-05T01:21:05.014Z,7.42
2019-03-05T01:23:32.369Z,7.28
2019-03-05T01:25:59.656Z,6.15
2019-03-05T01:28:26.927Z,7.47
2019-03-05T01:31:04.659Z,6.67
2019-03-05T01:33:39.686Z,6.47
2019-03-05T01:36:11.016Z,6.80
2019-03-05T01:38:39.933Z,6.22
2019-03-05T01:41:08.488Z,6.80
2019-03-05T01:43:35.750Z,7.53
2019-03-05T01:46:03.044Z,6.10
2019-03-05T01:48:30.316Z,8.45
2019-03-05T01:50:57.598Z,6.25
2019-03-05T01:53:24.874Z,5.70
2019-03-05T01:55:52.140Z,5.67
2019-03-05T01:58:19.493Z,5.60
2019-03-05T02:00:46.780Z,6.42
2019-03-05T02:03:14.048Z,6.10
2019-03-05T02:05:41.336Z,7.83
2019-03-05T02:08:08.694Z,7.55
2019-03-05T02:10:35.970Z,8.08
2019-03-05T02:13:03.254Z,7.17
2019-03-05T02:15:30.550Z,8.00
2019-03-05T02:17:57.822Z,9.70
2019-03-05T02:20:25.488Z,8.10
2019-03-05T02:23:09.310Z,9.43
2019-03-05T02:25:44.946Z,9.30
2019-03-05T02:28:13.830Z,7.67
2019-03-05T02:30:45.596Z,10.75
2019-03-05T02:33:14.515Z,9.18
2019-03-05T02:35:59.522Z,9.23
2019-03-05T02:38:34.179Z,11.43
2019-03-05T02:41:03.042Z,11.80
2019-03-05T02:43:31.881Z,13.72
2019-03-05T02:46:00.692Z,12.30
2019-03-05T02:48:35.504Z,11.25
2019-03-05T02:51:22.436Z,9.93
2019-03-05T02:53:51.250Z,16.42
2019-03-05T02:56:20.072Z,11.00
2019-03-05T02:58:46.840Z,12.82
2019-03-05T03:01:30.672Z,10.28
2019-03-05T03:04:02.638Z,12.25
2019-03-05T03:06:30.589Z,14.10
2019-03-05T03:09:02.102Z,12.85
2019-03-05T03:11:29.397Z,14.63
2019-03-05T03:13:56.693Z,17.42
2019-03-05T03:16:23.980Z,12.90
2019-03-05T03:18:51.270Z,10.65
2019-03-05T03:21:18.545Z,14.85
2019-03-05T03:23:45.828Z,11.75
2019-03-05T03:26:13.126Z,12.30
2019-03-05T03:28:40.411Z,11.43
2019-03-05T03:31:07.778Z,16.93
2019-03-05T03:33:35.088Z,20.40
2019-03-05T03:36:02.422Z,9.35
2019-03-05T03:38:29.703Z,11.85
2019-03-05T03:40:57.047Z,9.98
2019-03-05T03:43:24.619Z,10.43
2019-03-05T03:45:51.994Z,12.28
2019-03-05T03:48:19.275Z,13.18
2019-03-05T03:50:46.593Z,14.98
2019-03-05T03:53:13.884Z,13.03
2019-03-05T03:55:41.181Z,12.53
2019-03-05T03:58:08.629Z,12.23
2019-03-05T04:00:35.921Z,15.35
2019-03-05T04:03:03.459Z,20.00
2019-03-05T04:05:30.998Z,15.70
2019-03-05T04:07:58.275Z,8.80
2019-03-05T04:10:25.563Z,14.10
2019-03-05T04:12:52.924Z,10.63
2019-03-05T04:15:20.209Z,9.50
2019-03-05T04:17:47.478Z,9.98
2019-03-05T04:20:17.088Z,12.18
2019-03-05T04:22:44.441Z,12.63
2019-03-05T04:25:11.793Z,14.05
2019-03-05T04:27:39.146Z,16.20
2019-03-05T04:30:10.729Z,12.45
2019-03-05T04:32:38.258Z,9.13
2019-03-05T04:35:07.091Z,13.22
2019-03-05T04:37:34.358Z,10.50
2019-03-05T04:40:03.295Z,10.88
2019-03-05T04:42:30.831Z,10.60
2019-03-05T04:44:59.752Z,17.82
2019-03-05T04:47:27.017Z,14.05
2019-03-05T04:50:03.945Z,10.58
2019-03-05T04:52:31.396Z,15.10
2019-03-05T04:54:58.665Z,12.55
2019-03-05T04:57:25.970Z,12.90
2019-03-05T04:59:53.249Z,17.05
2019-03-05T05:02:20.537Z,16.35
2019-03-05T05:04:47.820Z,11.70
2019-03-05T05:07:15.182Z,12.47
2019-03-05T05:09:42.488Z,10.68
2019-03-05T05:12:09.854Z,13.00
2019-03-05T05:14:37.130Z,13.38
2019-03-05T05:17:04.410Z,12.37
2019-03-05T05:19:31.678Z,13.13
2019-03-05T05:21:58.966Z,8.65
2019-03-05T05:24:28.921Z,10.95
2019-03-05T05:26:56.186Z,10.95
2019-03-05T05:29:23.508Z,12.68
2019-03-05T05:31:50.783Z,9.90
2019-03-05T05:34:18.073Z,11.95
2019-03-05T05:36:45.421Z,9.88
2019-03-05T05:39:30.732Z,8.65
2019-03-05T05:41:58.032Z,11.18
2019-03-05T05:44:25.431Z,9.33
2019-03-05T05:46:52.732Z,8.90
2019-03-05T05:49:20.004Z,12.15
2019-03-05T05:51:47.279Z,6.95
2019-03-05T05:54:15.036Z,6.42
2019-03-05T05:56:42.338Z,5.67
2019-03-05T05:59:09.625Z,7.55
2019-03-05T06:01:36.938Z,5.55
2019-03-05T06:04:04.288Z,7.53
2019-03-05T06:06:31.574Z,5.35
2019-03-05T06:08:58.852Z,7.42
2019-03-05T06:11:26.190Z,11.18
2019-03-05T06:13:53.446Z,7.08
2019-03-05T06:16:20.719Z,9.43
2019-03-05T06:18:48.012Z,5.75
2019-03-05T06:21:15.286Z,7.20
2019-03-05T06:23:42.610Z,6.35
2019-03-05T06:26:09.934Z,8.73
2019-03-05T06:28:37.234Z,9.80
2019-03-05T06:31:05.962Z,9.60
2019-03-05T06:33:33.251Z,8.80
2019-03-05T06:36:00.644Z,12.90
2019-03-05T06:38:27.920Z,13.83
2019-03-05T06:40:55.225Z,19.07
2019-03-05T06:43:22.774Z,13.30
2019-03-05T06:45:50.087Z,13.43
2019-03-05T06:48:17.362Z,20.02
2019-03-05T06:50:48.670Z,15.23
2019-03-05T06:53:16.019Z,12.68
2019-03-05T06:55:43.334Z,13.55
2019-03-05T06:58:11.976Z,10.72
2019-03-05T07:00:41.067Z,15.68
2019-03-05T07:03:08.927Z,15.30
2019-03-05T07:05:56.060Z,11.88
2019-03-05T07:08:23.425Z,12.35
2019-03-05T07:11:01.003Z,12.45
2019-03-05T07:13:28.368Z,10.35
2019-03-05T07:15:57.188Z,10.03
2019-03-05T07:18:26.155Z,10.05
2019-03-05T07:20:54.990Z,10.08
2019-03-05T07:23:35.812Z,9.28
2019-03-05T07:26:03.097Z,11.33
2019-03-05T07:28:30.385Z,11.60
2019-03-05T07:30:57.648Z,11.08
2019-03-05T07:33:24.929Z,9.78
2019-03-05T07:35:52.293Z,10.63
2019-03-05T07:38:19.642Z,10.18
2019-03-05T07:40:46.933Z,9.88
2019-03-05T07:43:14.234Z,7.92
2019-03-05T07:45:41.588Z,8.68
2019-03-05T07:48:08.885Z,9.85
2019-03-05T07:50:37.231Z,9.53
2019-03-05T07:53:04.586Z,9.08
2019-03-05T07:55:31.863Z,9.80
2019-03-05T07:57:59.210Z,8.03
2019-03-05T08:00:26.652Z,11.28
2019-03-05T08:02:53.936Z,10.40
2019-03-05T08:05:21.325Z,9.58
2019-03-05T08:07:48.605Z,8.75
2019-03-05T08:10:26.082Z,8.70
2019-03-05T08:12:54.888Z,9.50
2019-03-05T08:15:23.716Z,9.75
2019-03-05T08:17:50.990Z,9.65
2019-03-05T08:20:18.351Z,8.95
2019-03-05T08:22:45.759Z,8.73
2019-03-05T08:25:14.111Z,7.40
2019-03-05T08:27:41.391Z,9.55
2019-03-05T08:30:14.331Z,8.90
2019-03-05T08:32:39.403Z,11.43
2019-03-05T08:35:07.969Z,10.53
2019-03-05T08:37:35.294Z,9.03
2019-03-05T08:40:02.814Z,9.50
2019-03-05T08:42:30.125Z,8.68
2019-03-05T08:44:57.458Z,9.43
2019-03-05T08:47:24.735Z,8.80
2019-03-05T08:49:52.099Z,10.35
2019-03-05T08:52:19.395Z,8.95
2019-03-05T08:54:46.663Z,8.50
2019-03-05T08:57:13.978Z,9.95
2019-03-05T08:59:41.249Z,7.47
2019-03-05T09:02:08.529Z,6.90
2019-03-05T09:04:35.820Z,7.05
2019-03-05T09:07:04.765Z,7.83
2019-03-05T09:09:32.040Z,7.75
2019-03-05T09:11:59.314Z,6.72
2019-03-05T09:14:26.692Z,7.20
2019-03-05T09:16:53.976Z,6.70
2019-03-05T09:19:21.244Z,6.63
2019-03-05T09:21:49.358Z,6.03
2019-03-05T09:24:20.060Z,6.30
2019-03-05T09:26:51.199Z,6.57
2019-03-05T09:29:16.412Z,7.10
2019-03-05T09:31:43.707Z,7.28
2019-03-05T09:34:10.988Z,7.17
2019-03-05T09:36:38.277Z,6.93
2019-03-05T09:39:06.529Z,7.50
2019-03-05T09:41:33.822Z,8.08
2019-03-05T09:44:01.092Z,9.45
2019-03-05T09:46:28.390Z,7.97
2019-03-05T09:48:55.672Z,9.60
2019-03-05T09:51:23.950Z,8.03
2019-03-05T09:53:51.229Z,8.38
2019-03-05T09:56:19.670Z,7.83
2019-03-05T09:58:46.961Z,8.00
2019-03-05T10:01:14.236Z,8.38
2019-03-05T10:03:41.511Z,8.63
2019-03-05T10:06:08.791Z,8.53
2019-03-05T10:08:36.106Z,8.20
2019-03-05T10:11:03.582Z,6.85
2019-03-05T10:13:31.693Z,7.30
2019-03-05T10:15:58.975Z,6.58
2019-03-05T10:18:26.264Z,7.33
2019-03-05T10:20:53.543Z,7.92
2019-03-05T10:23:20.850Z,6.87
2019-03-05T10:25:48.120Z,7.67
2019-03-05T10:28:15.410Z,8.90
2019-03-05T10:30:43.184Z,7.62
2019-03-05T10:33:11.440Z,7.60
2019-03-05T10:35:38.910Z,8.00
2019-03-05T10:38:07.170Z,7.33
2019-03-05T10:40:36.155Z,7.55
2019-03-05T10:43:08.324Z,8.58
2019-03-05T10:45:33.582Z,7.50
2019-03-05T10:48:00.871Z,8.28
2019-03-05T10:50:29.224Z,6.40
2019-03-05T10:52:56.658Z,5.83
2019-03-05T10:55:26.552Z,8.30
2019-03-05T10:57:53.068Z,9.10
2019-03-05T11:00:23.250Z,4.85
2019-03-05T11:02:50.911Z,6.37
2019-03-05T11:05:18.250Z,5.20
2019-03-05T11:07:46.522Z,5.45
2019-03-05T11:10:14.755Z,6.00
2019-03-05T11:12:42.116Z,5.73
2019-03-05T11:15:11.005Z,4.80
2019-03-05T11:17:38.258Z,5.33
2019-03-05T11:20:07.419Z,6.10
2019-03-05T11:22:34.799Z,5.40
2019-03-05T11:25:02.550Z,5.30
2019-03-05T11:27:29.931Z,4.80
2019-03-05T11:29:57.261Z,5.80
2019-03-05T11:32:24.547Z,5.40
2019-03-05T11:34:52.069Z,4.62
2019-03-05T11:37:19.732Z,5.65
2019-03-05T11:39:47.085Z,5.60
2019-03-05T11:42:14.414Z,3.90
2019-03-05T11:44:41.700Z,3.47
2019-03-05T11:47:08.989Z,3.58
2019-03-05T11:49:36.282Z,4.45
2019-03-05T11:52:03.552Z,5.08
2019-03-05T11:54:30.851Z,4.75
2019-03-05T11:56:58.121Z,4.87
2019-03-05T11:59:25.417Z,6.37
2019-03-05T12:01:53.773Z,5.83
2019-03-05T12:04:21.125Z,4.53
2019-03-05T12:06:48.481Z,4.70
2019-03-05T12:09:15.758Z,6.05
2019-03-05T12:11:43.043Z,5.12
2019-03-05T12:14:10.319Z,4.70
2019-03-05T12:16:37.680Z,4.83
2019-03-05T12:19:04.973Z,5.87
2019-03-05T12:21:32.267Z,5.37
2019-03-05T12:23:59.537Z,4.53
2019-03-05T12:26:28.629Z,5.00
2019-03-05T12:28:57.949Z,3.92
2019-03-05T12:31:31.247Z,4.10
2019-03-05T12:33:59.998Z,3.85
2019-03-05T12:36:31.977Z,4.08
2019-03-05T12:38:59.623Z,3.70
2019-03-05T12:41:26.991Z,4.70
2019-03-05T12:43:54.396Z,4.37
2019-03-05T12:46:22.951Z,4.87
2019-03-05T12:48:50.401Z,5.22
2019-03-05T12:51:17.860Z,4.45
2019-03-05T12:53:45.172Z,4.60
2019-03-05T12:56:23.133Z,4.95
2019-03-05T12:58:41.545Z,4.47
2019-03-05T13:01:09.176Z,4.92
2019-03-05T13:03:36.647Z,5.28
2019-03-05T13:06:04.085Z,6.55
2019-03-05T13:08:31.497Z,4.95
2019-03-05T13:10:58.807Z,7.20
2019-03-05T13:13:26.145Z,5.42
2019-03-05T13:15:56.563Z,7.83
2019-03-05T13:18:26.658Z,9.05
2019-03-05T13:20:51.778Z,5.50
2019-03-05T13:23:19.198Z,5.53
2019-03-05T13:25:46.594Z,5.40
2019-03-05T13:28:14.000Z,6.47
2019-03-05T13:30:41.402Z,5.85
2019-03-05T13:33:08.794Z,5.85
2019-03-05T13:35:36.154Z,6.12
2019-03-05T13:38:07.542Z,5.83
2019-03-05T13:40:34.216Z,7.37
2019-03-05T13:43:02.713Z,5.60
2019-03-05T13:45:30.002Z,5.53
2019-03-05T13:48:01.915Z,6.72
2019-03-05T13:50:47.149Z,5.80
2019-03-05T13:53:22.557Z,6.10
2019-03-05T13:55:49.791Z,7.17
2019-03-05T13:58:18.694Z,5.97
2019-03-05T14:00:46.013Z,10.78
2019-03-05T14:03:26.750Z,6.30
2019-03-05T14:06:12.038Z,5.70
2019-03-05T14:08:50.003Z,6.20
2019-03-05T14:11:21.542Z,6.53
2019-03-05T14:13:48.880Z,8.30
2019-03-05T14:16:17.972Z,6.75
2019-03-05T14:18:49.505Z,5.65
2019-03-05T14:21:20.216Z,9.50
2019-03-05T14:23:48.835Z,5.80
2019-03-05T14:26:16.279Z,6.70
2019-03-05T14:28:44.067Z,6.45
2019-03-05T14:31:11.704Z,5.60
2019-03-05T14:33:41.579Z,8.05
2019-03-05T14:36:13.339Z,6.90
2019-03-05T14:38:40.929Z,6.45
2019-03-05T14:41:13.182Z,5.50
2019-03-05T14:43:40.741Z,5.90
2019-03-05T14:46:08.451Z,5.30
2019-03-05T14:48:44.136Z,6.90
2019-03-05T14:51:11.826Z,7.37
2019-03-05T14:53:39.506Z,10.50
2019-03-05T14:56:09.488Z,5.50
2019-03-05T14:58:36.931Z,5.05
2019-03-05T15:01:05.373Z,7.08
2019-03-05T15:03:39.937Z,4.67
2019-03-05T15:06:07.782Z,4.62
2019-03-05T15:08:38.207Z,6.25
2019-03-05T15:11:05.770Z,5.17
2019-03-05T15:13:33.049Z,5.70
2019-03-05T15:16:25.668Z,5.53
2019-03-05T15:18:47.608Z,7.00
2019-03-05T15:21:18.530Z,8.03
2019-03-05T15:23:46.059Z,6.55
2019-03-05T15:26:19.649Z,7.80
2019-03-05T15:28:56.674Z,6.47
2019-03-05T15:31:25.110Z,6.37
2019-03-05T15:33:55.613Z,7.45
2019-03-05T15:36:24.204Z,6.10
2019-03-05T15:38:58.256Z,7.05
2019-03-05T15:41:37.136Z,7.42
2019-03-05T15:44:09.943Z,7.08
2019-03-05T15:46:39.205Z,6.60
2019-03-05T15:49:15.080Z,6.10
2019-03-05T15:51:50.475Z,6.40
2019-03-05T15:54:13.813Z,7.50
2019-03-05T15:56:43.077Z,7.20
2019-03-05T15:59:14.258Z,7.97
2019-03-05T16:02:09.309Z,7.15
2019-03-05T16:04:36.008Z,6.97
2019-03-05T16:07:10.868Z,5.70
2019-03-05T16:09:41.331Z,6.22
2019-03-05T16:12:10.925Z,6.20
2019-03-05T16:14:40.268Z,7.20
2019-03-05T16:17:10.075Z,6.20
2019-03-05T16:19:39.222Z,6.47
2019-03-05T16:22:14.155Z,8.63
2019-03-05T16:24:40.403Z,5.72
2019-03-05T16:27:10.829Z,5.55
2019-03-05T16:29:38.515Z,8.95
2019-03-05T16:32:13.568Z,6.35
2019-03-05T16:34:48.761Z,6.05
2019-03-05T16:37:27.946Z,5.17
2019-03-05T16:40:05.238Z,6.90
2019-03-05T16:42:39.131Z,7.97
2019-03-05T16:45:24.119Z,6.70
2019-03-05T16:47:57.197Z,7.35
2019-03-05T16:50:45.579Z,7.33
2019-03-05T16:53:14.819Z,6.10
2019-03-05T16:56:00.125Z,6.35
2019-03-05T16:58:42.955Z,6.62
2019-03-05T17:01:47.739Z,5.95
2019-03-05T17:04:38.993Z,7.53
2019-03-05T17:07:24.828Z,6.30
2019-03-05T17:09:59.887Z,6.87
2019-03-05T17:12:35.240Z,8.83
2019-03-05T17:15:07.816Z,8.95
2019-03-05T17:17:42.893Z,6.20
2019-03-05T17:20:12.851Z,6.80
2019-03-05T17:22:44.432Z,6.62
2019-03-05T17:25:13.689Z,8.25
2019-03-05T17:27:41.271Z,6.50
2019-03-05T17:30:11.976Z,8.10
2019-03-05T17:32:42.328Z,7.72
2019-03-05T17:35:12.656Z,8.55
2019-03-05T17:37:50.119Z,11.03
2019-03-05T17:40:22.240Z,6.78
2019-03-05T17:42:53.064Z,6.72
2019-03-05T17:45:26.815Z,8.10
2019-03-05T17:48:04.398Z,6.78
2019-03-05T17:50:31.702Z,6.08
2019-03-05T17:53:05.804Z,6.90
2019-03-05T17:55:33.174Z,9.40
2019-03-05T17:58:00.621Z,8.40
2019-03-05T18:00:35.377Z,6.50
2019-03-05T18:03:02.803Z,7.45
2019-03-05T18:05:32.691Z,7.55
2019-03-05T18:08:00.059Z,6.92
2019-03-05T18:10:27.550Z,6.20
2019-03-05T18:12:55.012Z,6.55
2019-03-05T18:15:24.979Z,8.18
2019-03-05T18:17:52.416Z,6.25
2019-03-05T18:20:20.834Z,8.48
2019-03-05T18:22:48.472Z,5.72
2019-03-05T18:25:16.200Z,10.05
2019-03-05T18:27:43.661Z,9.55
2019-03-05T18:30:12.564Z,6.87
2019-03-05T18:32:39.914Z,6.97
2019-03-05T18:35:08.076Z,8.40
2019-03-05T18:37:35.512Z,7.33
2019-03-05T18:40:03.523Z,8.18
2019-03-05T18:42:30.838Z,7.80
2019-03-05T18:44:59.012Z,6.83
2019-03-05T18:47:26.484Z,6.72
2019-03-05T18:49:53.836Z,11.10
2019-03-05T18:52:21.244Z,7.03
2019-03-05T18:54:48.798Z,8.48
2019-03-05T18:57:16.260Z,7.72
2019-03-05T18:59:43.679Z,10.63
2019-03-05T19:02:11.355Z,8.20
2019-03-05T19:04:38.949Z,8.60
2019-03-05T19:07:06.866Z,7.83
2019-03-05T19:09:34.288Z,10.68
2019-03-05T19:12:01.674Z,7.80
2019-03-05T19:14:29.094Z,10.28
2019-03-05T19:16:56.862Z,9.83
2019-03-05T19:19:24.315Z,7.90
2019-03-05T19:21:54.205Z,8.58
2019-03-05T19:24:21.501Z,9.93
2019-03-05T19:26:48.934Z,7.33
2019-03-05T19:29:16.495Z,8.15
2019-03-05T19:31:43.994Z,12.15
2019-03-05T19:34:12.349Z,8.18
2019-03-05T19:36:39.709Z,7.87
2019-03-05T19:39:07.158Z,9.35
2019-03-05T19:41:34.445Z,9.60
2019-03-05T19:44:01.763Z,7.25
2019-03-05T19:46:29.276Z,8.00
2019-03-05T19:48:56.639Z,9.65
2019-03-05T19:51:24.015Z,8.95
2019-03-05T19:53:51.404Z,10.00
2019-03-05T19:56:18.934Z,7.80
2019-03-05T19:58:46.280Z,9.58
2019-03-05T20:01:15.301Z,9.18
2019-03-05T20:03:42.673Z,11.30
2019-03-05T20:06:10.138Z,8.48
2019-03-05T20:08:40.189Z,10.38
2019-03-05T20:11:06.456Z,10.00
2019-03-05T20:13:33.965Z,7.95
2019-03-05T20:16:01.354Z,8.98
2019-03-05T20:18:28.726Z,8.28
2019-03-05T20:20:56.418Z,9.23
2019-03-05T20:23:24.009Z,10.28
2019-03-05T20:25:51.390Z,10.28
2019-03-05T20:28:18.775Z,9.50
2019-03-05T20:30:46.241Z,14.60
2019-03-05T20:33:15.271Z,8.15
2019-03-05T20:35:42.639Z,10.40
2019-03-05T20:38:10.078Z,8.85
2019-03-05T20:40:37.473Z,8.98
2019-03-05T20:43:04.999Z,7.80
2019-03-05T20:45:33.841Z,9.13
2019-03-05T20:48:01.220Z,8.95
2019-03-05T20:50:28.853Z,10.63
2019-03-05T20:52:56.728Z,10.35
2019-03-05T20:55:24.862Z,8.48
2019-03-05T20:57:52.266Z,14.47
2019-03-05T21:00:25.790Z,11.38
2019-03-05T21:02:54.273Z,12.37
2019-03-05T21:05:21.758Z,12.95
2019-03-05T21:07:49.122Z,9.43
2019-03-05T21:10:16.559Z,12.00
2019-03-05T21:12:43.893Z,9.65
2019-03-05T21:15:12.584Z,9.60
2019-03-05T21:17:40.204Z,9.25
2019-03-05T21:20:09.314Z,13.62
2019-03-05T21:22:36.619Z,12.68
2019-03-05T21:25:05.545Z,9.03
2019-03-05T21:27:34.861Z,9.30
2019-03-05T21:30:02.356Z,9.40
2019-03-05T21:32:29.728Z,10.13
2019-03-05T21:34:57.087Z,10.38
2019-03-05T21:37:25.964Z,9.43
2019-03-05T21:39:56.704Z,10.05
2019-03-05T21:42:29.198Z,11.40
2019-03-05T21:44:57.470Z,11.93
2019-03-05T21:50:13.154Z,12.10
2019-03-05T21:52:46.470Z,11.35
2019-03-05T21:55:20.769Z,10.13
2019-03-05T21:57:56.138Z,10.63
2019-03-05T22:00:20.322Z,10.68
2019-03-05T22:02:47.712Z,12.53
2019-03-05T22:05:15.182Z,12.88
2019-03-05T22:07:42.633Z,11.60
2019-03-05T22:10:11.592Z,17.57
2019-03-05T22:12:38.942Z,13.28
2019-03-05T22:15:08.230Z,15.08
2019-03-05T22:17:35.539Z,14.43
2019-03-05T22:20:03.090Z,13.13
2019-03-05T22:22:30.392Z,12.78
2019-03-05T22:24:57.782Z,15.08
2019-03-05T22:27:25.190Z,10.95
2019-03-05T22:29:52.557Z,10.45
2019-03-05T22:32:19.866Z,11.25
2019-03-05T22:34:47.166Z,12.80
2019-03-05T22:37:15.747Z,14.93
2019-03-05T22:39:43.114Z,16.52
2019-03-05T22:42:10.606Z,15.80
2019-03-05T22:44:37.915Z,13.43
2019-03-05T22:47:05.207Z,15.18
2019-03-05T22:49:32.559Z,11.53
2019-03-05T22:51:59.925Z,12.65
2019-03-05T22:54:28.312Z,16.42
2019-03-05T22:56:55.660Z,13.45
2019-03-05T22:59:22.948Z,15.68
2019-03-05T23:01:50.255Z,37.30
2019-03-05T23:04:18.274Z,41.63
2019-03-05T23:06:45.563Z,33.50
2019-03-05T23:09:14.672Z,18.95
2019-03-05T23:11:41.962Z,40.33
2019-03-05T23:14:09.362Z,40.45
2019-03-05T23:16:36.777Z,40.98
2019-03-05T23:19:04.146Z,26.10
2019-03-05T23:21:31.464Z,23.42
2019-03-05T23:23:58.835Z,15.55
2019-03-05T23:26:26.319Z,17.00
2019-03-05T23:28:53.684Z,15.63
2019-03-05T23:31:21.113Z,18.73
2019-03-05T23:33:48.479Z,15.13
2019-03-05T23:36:15.972Z,13.78
2019-03-05T23:38:43.366Z,17.57
2019-03-05T23:41:10.801Z,14.40
2019-03-05T23:43:38.164Z,18.75
2019-03-05T23:46:05.451Z,13.60
2019-03-05T23:48:32.749Z,15.32
2019-03-05T23:51:00.257Z,10.70
2019-03-05T23:53:27.611Z,14.23
2019-03-05T23:55:54.999Z,12.88
2019-03-05T23:58:22.315Z,10.72
